Time;durP1;ratioP1;P1;durP2;ratioP2;P2;SDS_P1;SDS_P2;PMS_P1;PMS_P2;Temp;Humidity;BMP_temperature;BMP_pressure;BME280_temperature;BME280_humidity;BME280_pressure;Samples;Min_cycle;Max_cycle;Signal;HPM_P1;HPM_P2
2021/03/01 00:00:22;;;;;;;20.83;16.08;;;;;;;21.18;49.67;100532.88;1026275;28;20034;-71
2021/03/01 00:00:53;;;;;;;21.10;16.95;;;;;;;21.18;49.87;100530.13;1026353;28;20115;-72
2021/03/01 00:01:23;;;;;;;18.92;15.80;;;;;;;21.18;49.71;100524.66;1026604;28;20713;-72
2021/03/01 00:01:54;;;;;;;20.80;16.88;;;;;;;21.18;49.57;100532.88;1024889;28;20050;-71
2021/03/01 00:02:24;;;;;;;20.90;16.55;;;;;;;21.17;49.62;100522.94;1026874;28;20023;-71
2021/03/01 00:02:55;;;;;;;19.27;15.57;;;;;;;21.19;49.94;100526.38;1026897;28;20744;-72
2021/03/01 00:03:26;;;;;;;21.45;17.10;;;;;;;21.19;49.87;100529.09;1026573;28;20019;-72
2021/03/01 00:03:57;;;;;;;20.48;16.20;;;;;;;21.17;49.95;100525.69;1026551;28;20301;-72
2021/03/01 00:04:27;;;;;;;21.05;16.45;;;;;;;21.17;49.96;100532.03;1022471;28;20097;-71
2021/03/01 00:04:58;;;;;;;22.45;17.40;;;;;;;21.17;50.00;100522.94;1020857;28;20889;-72
2021/03/01 00:05:28;;;;;;;20.08;16.13;;;;;;;21.16;49.79;100524.78;1021177;28;20031;-71
2021/03/01 00:06:00;;;;;;;18.52;15.05;;;;;;;21.17;50.13;100522.94;1024060;28;20027;-72
2021/03/01 00:06:30;;;;;;;17.60;15.73;;;;;;;21.16;49.72;100524.78;1022471;28;20042;-72
2021/03/01 00:07:01;;;;;;;19.45;15.93;;;;;;;21.17;49.99;100529.28;1021978;28;20485;-72
2021/03/01 00:07:31;;;;;;;23.17;18.08;;;;;;;21.15;49.75;100528.56;1022695;28;20038;-72
2021/03/01 00:08:03;;;;;;;20.67;16.92;;;;;;;21.14;49.77;100517.75;1026245;28;20018;-71
2021/03/01 00:08:33;;;;;;;19.20;16.15;;;;;;;21.16;49.90;100521.19;1026382;28;20802;-71
2021/03/01 00:09:04;;;;;;;20.33;16.65;;;;;;;21.16;49.93;100532.16;1026301;28;20712;-71
2021/03/01 00:09:35;;;;;;;19.13;16.63;;;;;;;21.15;49.81;100527.69;1026215;28;20030;-72
2021/03/01 00:10:07;;;;;;;18.65;16.40;;;;;;;21.16;49.93;100526.69;1028038;28;20249;-72
2021/03/01 00:10:37;;;;;;;20.63;17.35;;;;;;;21.15;49.98;100525.81;1026467;28;20105;-71
2021/03/01 00:11:08;;;;;;;23.58;17.08;;;;;;;21.15;49.96;100530.44;1026941;28;20280;-72
2021/03/01 00:11:38;;;;;;;17.98;15.45;;;;;;;21.15;49.79;100530.44;1026169;28;20400;-72
2021/03/01 00:12:10;;;;;;;19.17;16.75;;;;;;;21.15;49.92;100530.44;1026083;28;20030;-71
2021/03/01 00:12:41;;;;;;;20.42;17.08;;;;;;;21.15;49.77;100524.97;1026534;28;20047;-71
2021/03/01 00:13:12;;;;;;;20.85;16.60;;;;;;;21.15;49.98;100530.44;1022133;29;21582;-71
2021/03/01 00:13:43;;;;;;;16.98;15.05;;;;;;;21.16;49.79;100526.69;1022240;29;20797;-71
2021/03/01 00:14:13;;;;;;;21.70;16.88;;;;;;;21.14;49.88;100528.69;1023187;28;20027;-71
2021/03/01 00:14:44;;;;;;;20.05;15.70;;;;;;;21.15;49.81;100533.19;1022335;28;20398;-72
2021/03/01 00:15:16;;;;;;;20.38;16.55;;;;;;;21.13;50.05;100536.06;1025518;28;20122;-72
2021/03/01 00:15:48;;;;;;;20.40;16.05;;;;;;;21.13;49.93;100530.59;1026195;28;20029;-71
2021/03/01 00:16:18;;;;;;;18.05;15.88;;;;;;;21.14;50.07;100523.22;1026522;28;20325;-72
2021/03/01 00:16:49;;;;;;;20.85;16.50;;;;;;;21.13;50.07;100527.84;1022812;28;20318;-72
2021/03/01 00:17:20;;;;;;;21.05;16.83;;;;;;;21.14;49.99;100523.22;1022327;29;20042;-72
2021/03/01 00:17:51;;;;;;;21.98;17.38;;;;;;;21.13;49.96;100524.25;1022735;29;20114;-72
2021/03/01 00:18:21;;;;;;;19.27;16.45;;;;;;;21.14;49.80;100523.22;1018434;28;20127;-71
2021/03/01 00:18:52;;;;;;;21.30;15.63;;;;;;;21.13;49.79;100527.84;1024623;28;20046;-71
2021/03/01 00:19:23;;;;;;;20.23;15.93;;;;;;;21.13;50.05;100532.47;1023175;28;20070;-71
2021/03/01 00:19:53;;;;;;;18.60;15.82;;;;;;;21.13;49.78;100532.47;1022194;29;20152;-71
2021/03/01 00:20:24;;;;;;;20.02;15.93;;;;;;;21.14;49.84;100531.44;1021326;29;20105;-71
2021/03/01 00:20:54;;;;;;;17.75;15.85;;;;;;;21.14;49.97;100529.59;1021571;28;20673;-71
2021/03/01 00:21:25;;;;;;;18.02;15.65;;;;;;;21.14;49.81;100535.06;1018034;29;20058;-71
2021/03/01 00:21:55;;;;;;;20.27;16.00;;;;;;;21.14;49.94;100534.19;1013796;29;20107;-71
2021/03/01 00:22:26;;;;;;;17.60;15.00;;;;;;;21.14;50.16;100528.69;1010341;29;20630;-72
2021/03/01 00:22:56;;;;;;;20.83;15.95;;;;;;;21.14;49.98;100529.59;1017839;29;20038;-71
2021/03/01 00:23:27;;;;;;;21.60;17.30;;;;;;;21.14;49.89;100528.69;1021402;28;20023;-71
2021/03/01 00:23:58;;;;;;;21.15;16.13;;;;;;;21.15;49.80;100527.69;1021097;28;20030;-71
2021/03/01 00:24:28;;;;;;;18.55;15.45;;;;;;;21.13;50.12;100532.47;1020383;29;20070;-71
2021/03/01 00:24:59;;;;;;;18.05;16.08;;;;;;;21.13;50.01;100525.09;1021626;29;20051;-72
2021/03/01 00:25:29;;;;;;;19.55;16.35;;;;;;;21.12;50.06;100526.13;1024118;28;20087;-71
2021/03/01 00:26:00;;;;;;;19.65;16.38;;;;;;;21.14;49.91;100534.19;1026647;28;20026;-72
2021/03/01 00:26:30;;;;;;;24.33;15.63;;;;;;;21.14;49.65;100526.84;1026651;28;20054;-71
2021/03/01 00:27:01;;;;;;;18.90;15.07;;;;;;;21.14;49.77;100532.34;1026635;28;20034;-72
2021/03/01 00:27:32;;;;;;;18.35;15.10;;;;;;;21.13;49.83;100527.00;1026409;28;20502;-71
2021/03/01 00:28:02;;;;;;;18.77;15.80;;;;;;;21.13;50.00;100530.59;1020874;29;20027;-72
2021/03/01 00:28:33;;;;;;;17.60;14.50;;;;;;;21.13;49.91;100532.47;1022179;29;20026;-71
2021/03/01 00:29:03;;;;;;;19.02;16.10;;;;;;;21.12;49.78;100530.75;1022264;29;20031;-72
2021/03/01 00:29:34;;;;;;;18.83;15.77;;;;;;;21.12;50.02;100526.13;1021954;28;20024;-72
2021/03/01 00:30:07;;;;;;;20.30;16.30;;;;;;;21.11;50.12;100521.66;1026267;28;20031;-71
2021/03/01 00:30:38;;;;;;;19.77;15.82;;;;;;;21.11;49.82;100523.53;1026489;28;20105;-72
2021/03/01 00:31:08;;;;;;;20.88;16.45;;;;;;;21.11;49.84;100524.38;1026776;28;20251;-72
2021/03/01 00:31:39;;;;;;;18.38;15.13;;;;;;;21.11;50.16;100518.06;1026570;28;20023;-71
2021/03/01 00:32:09;;;;;;;19.80;15.65;;;;;;;21.11;49.88;100529.00;1026623;28;20022;-72
2021/03/01 00:32:40;;;;;;;20.15;15.55;;;;;;;21.10;49.93;100516.34;1026902;28;20800;-71
2021/03/01 00:33:10;;;;;;;20.48;16.17;;;;;;;21.10;50.00;100517.19;1026844;28;20027;-71
2021/03/01 00:33:41;;;;;;;19.40;15.85;;;;;;;21.10;49.95;100516.34;1026141;28;20050;-72
2021/03/01 00:34:11;;;;;;;18.55;16.55;;;;;;;21.11;50.00;100518.06;1027309;28;20023;-71
2021/03/01 00:34:42;;;;;;;18.15;16.13;;;;;;;21.09;50.04;100522.81;1027493;28;20031;-71
2021/03/01 00:35:13;;;;;;;21.15;16.40;;;;;;;21.10;50.10;100516.34;1026789;28;20585;-72
2021/03/01 00:35:43;;;;;;;19.52;15.43;;;;;;;21.11;50.18;100518.06;1027484;28;20061;-72
2021/03/01 00:36:14;;;;;;;19.35;15.65;;;;;;;21.09;50.03;100517.34;1027075;28;20121;-71
2021/03/01 00:36:45;;;;;;;20.30;16.52;;;;;;;21.10;49.92;100511.72;1027670;28;20029;-72
2021/03/01 00:37:15;;;;;;;21.23;16.23;;;;;;;21.12;49.92;100514.31;1027321;28;20530;-72
2021/03/01 00:37:46;;;;;;;19.80;15.45;;;;;;;21.10;50.17;100516.34;1026965;28;20178;-72
2021/03/01 00:38:16;;;;;;;17.88;15.95;;;;;;;21.10;49.97;100516.34;1023261;29;20035;-72
2021/03/01 00:38:47;;;;;;;19.80;15.00;;;;;;;21.08;50.02;100513.75;1023342;29;20019;-72
2021/03/01 00:39:18;;;;;;;22.05;17.25;;;;;;;21.09;50.00;100514.59;1023991;28;20026;-72
2021/03/01 00:39:48;;;;;;;17.50;15.63;;;;;;;21.09;50.12;100514.59;1024404;28;20163;-72
2021/03/01 00:40:19;;;;;;;16.75;14.25;;;;;;;21.09;49.96;100514.59;1027405;28;20030;-72
2021/03/01 00:40:49;;;;;;;19.92;15.25;;;;;;;21.09;50.04;100507.25;1027186;28;20034;-71
2021/03/01 00:41:20;;;;;;;17.88;14.27;;;;;;;21.09;50.15;100514.59;1025414;28;20062;-71
2021/03/01 00:41:51;;;;;;;18.85;15.15;;;;;;;21.09;50.09;100511.84;1031742;28;20026;-71
2021/03/01 00:42:21;;;;;;;18.25;15.38;;;;;;;21.09;50.23;100509.13;1027122;28;20078;-71
2021/03/01 00:42:52;;;;;;;18.70;15.70;;;;;;;21.08;50.17;100507.41;1024024;28;20797;-71
2021/03/01 00:43:22;;;;;;;17.10;14.57;;;;;;;21.08;50.06;100512.88;1022276;29;20106;-72
2021/03/01 00:43:53;;;;;;;18.23;14.75;;;;;;;21.08;50.02;100515.63;1023407;28;20026;-71
2021/03/01 00:44:24;;;;;;;17.65;14.60;;;;;;;21.08;50.01;100507.41;1023169;29;20035;-71
2021/03/01 00:44:54;;;;;;;18.15;14.27;;;;;;;21.07;50.14;100511.13;1022426;28;20111;-71
2021/03/01 00:45:25;;;;;;;20.77;16.08;;;;;;;21.06;50.18;100504.81;1023212;29;20039;-72
2021/03/01 00:45:55;;;;;;;18.02;14.45;;;;;;;21.06;50.15;100510.28;1023066;28;20032;-71
2021/03/01 00:46:26;;;;;;;16.30;14.50;;;;;;;21.06;50.28;100506.69;1026079;28;20144;-72
2021/03/01 00:46:57;;;;;;;20.90;14.73;;;;;;;21.06;49.96;100512.16;1027600;28;20027;-72
2021/03/01 00:47:28;;;;;;;17.75;14.77;;;;;;;21.06;49.98;100509.44;1023234;29;20266;-72
2021/03/01 00:47:58;;;;;;;19.30;15.63;;;;;;;21.06;50.21;100514.91;1022976;29;20067;-71
2021/03/01 00:48:29;;;;;;;20.50;15.38;;;;;;;21.06;50.08;100509.44;1020238;28;20043;-71
2021/03/01 00:48:59;;;;;;;17.88;14.40;;;;;;;21.07;50.07;100514.78;1022952;28;20070;-71
2021/03/01 00:49:30;;;;;;;19.52;15.10;;;;;;;21.07;50.06;100501.06;1023871;28;20133;-71
2021/03/01 00:50:00;;;;;;;19.27;15.88;;;;;;;21.08;50.36;100512.88;1023665;28;20062;-72
2021/03/01 00:50:31;;;;;;;18.42;14.35;;;;;;;21.06;50.02;100507.53;1027098;28;20034;-71
2021/03/01 00:51:02;;;;;;;20.38;15.85;;;;;;;21.06;50.31;100509.44;1026871;28;20026;-72
2021/03/01 00:51:34;;;;;;;16.88;14.07;;;;;;;21.05;50.22;100508.56;1026834;28;20417;-71
2021/03/01 00:52:04;;;;;;;17.95;15.32;;;;;;;21.06;50.22;100512.16;1022540;29;20263;-72
2021/03/01 00:52:35;;;;;;;20.42;15.23;;;;;;;21.06;50.08;100501.22;1020256;28;20278;-71
2021/03/01 00:53:06;;;;;;;18.00;14.38;;;;;;;21.05;50.31;100507.72;1022801;28;20027;-72
2021/03/01 00:53:36;;;;;;;18.90;15.52;;;;;;;21.06;50.17;100504.81;1023211;28;20087;-72
2021/03/01 00:54:07;;;;;;;20.73;15.95;;;;;;;21.06;50.27;100503.94;1027267;28;20540;-71
2021/03/01 00:54:51;;;;;;;18.73;15.13;;;;;;;21.05;50.48;100507.72;1024289;28;20059;-71
2021/03/01 00:55:22;;;;;;;15.90;14.18;;;;;;;21.05;50.13;100502.22;1022379;29;20279;-70
2021/03/01 00:55:53;;;;;;;16.85;14.32;;;;;;;21.05;50.20;100503.09;1020339;29;20106;-71
2021/03/01 00:56:24;;;;;;;17.30;14.68;;;;;;;21.04;50.23;100509.56;1016976;29;20031;-71
2021/03/01 00:56:55;;;;;;;17.17;14.85;;;;;;;21.04;50.36;100506.81;1023071;29;20251;-71
2021/03/01 00:57:25;;;;;;;20.45;15.40;;;;;;;21.05;50.07;100507.72;1018412;29;20148;-71
2021/03/01 00:57:56;;;;;;;19.50;15.23;;;;;;;21.05;50.08;100503.09;1022846;29;20050;-71
2021/03/01 00:58:26;;;;;;;16.92;14.73;;;;;;;21.04;50.27;100506.81;1021324;29;20045;-71
2021/03/01 00:58:57;;;;;;;18.13;15.05;;;;;;;21.04;49.99;100501.34;1019524;28;20221;-71
2021/03/01 00:59:29;;;;;;;16.92;14.88;;;;;;;21.05;50.29;100507.72;1027512;28;20019;-72
2021/03/01 01:00:18;;;;;;;18.65;14.45;;;;;;;21.04;50.39;100500.50;1023425;28;20035;-72
2021/03/01 01:00:56;;;;;;;17.90;15.32;;;;;;;21.04;50.40;100505.97;1023074;29;20286;-72
2021/03/01 01:01:30;;;;;;;16.45;14.38;;;;;;;21.03;50.23;100502.38;1019220;29;20378;-72
2021/03/01 01:02:00;;;;;;;21.52;14.88;;;;;;;21.04;50.29;100505.97;1018494;29;20277;-72
2021/03/01 01:02:31;;;;;;;16.42;13.68;;;;;;;21.04;50.25;100505.97;1018780;29;20410;-71
2021/03/01 01:03:34;;;;;;;16.38;14.70;;;;;;;21.01;50.39;100507.13;1014301;28;20055;-71
2021/03/01 01:04:08;;;;;;;21.27;14.57;;;;;;;21.02;50.27;100505.25;1022911;29;20358;-71
2021/03/01 01:04:40;;;;;;;17.05;14.25;;;;;;;21.03;50.34;100509.75;1023251;29;20382;-71
2021/03/01 01:05:13;;;;;;;22.10;15.93;;;;;;;21.02;50.27;100502.50;1022552;28;20282;-71
2021/03/01 01:05:43;;;;;;;21.73;16.23;;;;;;;21.01;50.20;100506.28;1024045;28;20837;-72
2021/03/01 01:06:14;;;;;;;16.38;14.60;;;;;;;21.03;50.14;100512.47;1027502;28;20789;-72
2021/03/01 01:06:44;;;;;;;16.60;14.65;;;;;;;21.02;50.25;100513.47;1023253;28;20022;-72
2021/03/01 01:07:15;;;;;;;16.17;14.05;;;;;;;21.03;50.13;100512.47;1027209;28;20015;-71
2021/03/01 01:07:46;;;;;;;20.77;14.23;;;;;;;21.03;50.17;100517.97;1027270;28;20046;-72
2021/03/01 01:08:16;;;;;;;18.23;14.32;;;;;;;21.01;50.15;100512.63;1027436;28;20041;-72
2021/03/01 01:08:47;;;;;;;15.95;13.77;;;;;;;21.02;50.25;100513.47;1027047;28;20545;-71
2021/03/01 01:09:18;;;;;;;17.40;14.15;;;;;;;21.01;50.10;100515.38;1027544;28;20505;-71
2021/03/01 01:09:48;;;;;;;17.55;14.23;;;;;;;21.01;50.23;100518.09;1024547;28;20023;-71
2021/03/01 01:10:19;;;;;;;16.95;14.30;;;;;;;21.01;50.17;100512.63;1024982;28;20085;-71
2021/03/01 01:10:50;;;;;;;19.10;15.35;;;;;;;21.00;50.25;100516.38;1027109;28;20890;-72
2021/03/01 01:11:20;;;;;;;17.75;13.93;;;;;;;21.02;50.35;100513.47;1027134;28;20058;-71
2021/03/01 01:11:51;;;;;;;18.08;15.23;;;;;;;21.01;50.18;100511.78;1024852;28;20213;-71
2021/03/01 01:12:22;;;;;;;17.75;14.63;;;;;;;21.01;50.36;100518.09;1027067;28;20045;-71
2021/03/01 01:12:53;;;;;;;16.83;14.50;;;;;;;21.00;50.17;100516.38;1027076;28;20093;-71
2021/03/01 01:13:23;;;;;;;18.77;14.98;;;;;;;21.00;50.26;100510.91;1027134;28;20030;-71
2021/03/01 01:13:54;;;;;;;17.70;14.65;;;;;;;21.01;50.31;100511.78;1026921;28;20349;-71
2021/03/01 01:14:25;;;;;;;19.05;14.32;;;;;;;21.01;50.19;100511.78;1027609;28;20035;-71
2021/03/01 01:14:55;;;;;;;17.33;13.75;;;;;;;20.99;50.21;100514.66;1027072;28;20638;-71
2021/03/01 01:15:26;;;;;;;17.55;15.27;;;;;;;20.98;50.25;100513.78;1022848;28;20062;-71
2021/03/01 01:15:58;;;;;;;19.77;13.45;;;;;;;20.98;50.34;100519.28;1022404;28;20078;-70
2021/03/01 01:16:29;;;;;;;19.67;14.18;;;;;;;20.97;50.23;100512.06;1023324;29;20055;-71
2021/03/01 01:16:59;;;;;;;16.92;14.50;;;;;;;20.98;50.41;100513.78;1022785;28;20345;-72
2021/03/01 01:17:30;;;;;;;17.85;13.80;;;;;;;20.99;50.33;100509.16;1025571;28;20648;-71
2021/03/01 01:18:01;;;;;;;17.20;14.50;;;;;;;20.97;50.37;100505.75;1026995;28;20048;-71
2021/03/01 01:18:32;;;;;;;18.73;14.38;;;;;;;20.97;50.23;100501.13;1022802;28;20055;-71
2021/03/01 01:19:05;;;;;;;16.75;14.10;;;;;;;20.97;50.30;100517.56;1023221;29;20027;-71
2021/03/01 01:19:36;;;;;;;16.38;14.52;;;;;;;20.98;50.35;100521.16;1023022;28;20357;-71
2021/03/01 01:20:09;;;;;;;18.15;14.38;;;;;;;20.98;50.37;100516.53;1023628;28;20266;-71
2021/03/01 01:20:40;;;;;;;18.45;13.98;;;;;;;20.96;50.33;100513.06;1027480;28;20023;-71
2021/03/01 01:21:11;;;;;;;17.02;13.73;;;;;;;20.98;50.28;100522.00;1027443;28;20246;-71
2021/03/01 01:21:41;;;;;;;16.58;13.90;;;;;;;20.98;50.41;100513.78;1027299;28;20046;-71
2021/03/01 01:22:12;;;;;;;18.48;13.50;;;;;;;20.98;50.36;100522.00;1023815;28;20286;-71
2021/03/01 01:22:43;;;;;;;18.20;15.15;;;;;;;20.98;50.22;100512.94;1022869;28;20045;-71
2021/03/01 01:23:14;;;;;;;17.00;13.38;;;;;;;20.96;50.35;100510.34;1018179;29;20031;-71
2021/03/01 01:23:44;;;;;;;17.80;13.70;;;;;;;20.96;50.29;100514.97;1019307;29;20263;-72
2021/03/01 01:24:15;;;;;;;18.48;15.27;;;;;;;20.96;50.46;100510.34;1022612;28;20035;-71
2021/03/01 01:24:45;;;;;;;17.98;14.10;;;;;;;20.96;50.22;100515.81;1023135;28;20122;-71
2021/03/01 01:25:17;;;;;;;18.38;14.00;;;;;;;20.96;50.42;100512.22;1026940;28;20023;-70
2021/03/01 01:25:47;;;;;;;18.75;13.98;;;;;;;20.95;50.31;100516.84;1027496;28;20026;-71
2021/03/01 01:26:18;;;;;;;17.70;14.63;;;;;;;20.95;50.28;100514.09;1024453;28;20877;-71
2021/03/01 01:26:48;;;;;;;16.90;13.80;;;;;;;20.95;50.52;100519.59;1027498;28;20034;-71
2021/03/01 01:27:19;;;;;;;16.55;14.00;;;;;;;20.94;50.41;100514.25;1027505;28;20027;-71
2021/03/01 01:27:50;;;;;;;19.75;14.60;;;;;;;20.95;50.24;100518.72;1024308;28;20765;-71
2021/03/01 01:28:20;;;;;;;15.77;14.07;;;;;;;20.94;50.36;100511.50;1027407;28;20728;-71
2021/03/01 01:28:51;;;;;;;18.70;13.57;;;;;;;20.94;50.23;100511.50;1022518;28;20069;-71
2021/03/01 01:29:22;;;;;;;15.85;13.10;;;;;;;20.94;50.52;100512.34;1019588;28;20035;-71
2021/03/01 01:29:52;;;;;;;16.00;13.63;;;;;;;20.93;50.44;100513.38;1022222;28;20043;-71
2021/03/01 01:30:25;;;;;;;16.40;13.45;;;;;;;20.94;50.31;100506.88;1023049;28;20027;-71
2021/03/01 01:30:56;;;;;;;17.02;14.55;;;;;;;20.93;50.41;100515.28;1027538;28;20031;-71
2021/03/01 01:31:26;;;;;;;16.27;13.63;;;;;;;20.93;50.28;100513.38;1027063;28;20329;-71
2021/03/01 01:31:57;;;;;;;16.38;13.00;;;;;;;20.93;50.40;100509.78;1026950;28;20041;-71
2021/03/01 01:32:28;;;;;;;16.55;13.93;;;;;;;20.93;50.46;100516.13;1027425;28;20034;-71
2021/03/01 01:32:58;;;;;;;20.48;13.75;;;;;;;20.94;50.41;100512.34;1027079;28;20062;-71
2021/03/01 01:33:29;;;;;;;16.17;13.48;;;;;;;20.91;50.54;100504.44;1026839;28;20030;-71
2021/03/01 01:33:59;;;;;;;17.05;13.30;;;;;;;20.91;50.36;100512.66;1029132;28;20053;-71
2021/03/01 01:34:30;;;;;;;15.82;13.75;;;;;;;20.93;50.58;100516.13;1026872;28;20038;-71
2021/03/01 01:35:01;;;;;;;16.40;13.10;;;;;;;20.91;50.51;100512.66;1027035;28;20102;-71
2021/03/01 01:35:31;;;;;;;17.45;14.30;;;;;;;20.90;50.33;100510.97;1027392;28;20060;-71
2021/03/01 01:36:02;;;;;;;16.70;13.73;;;;;;;20.90;50.50;100504.63;1027252;28;20039;-71
2021/03/01 01:36:32;;;;;;;18.20;13.18;;;;;;;20.89;50.42;100509.22;1026799;28;20058;-71
2021/03/01 01:37:03;;;;;;;17.50;14.93;;;;;;;20.90;50.46;100505.47;1027508;28;20532;-72
2021/03/01 01:37:34;;;;;;;16.48;13.82;;;;;;;20.89;50.43;100509.22;1027075;28;20409;-72
2021/03/01 01:38:05;;;;;;;17.92;13.93;;;;;;;20.88;50.45;100504.75;1023211;28;20023;-70
2021/03/01 01:38:35;;;;;;;17.10;13.35;;;;;;;20.88;50.40;100507.50;1026010;28;20328;-71
2021/03/01 01:39:06;;;;;;;21.13;15.57;;;;;;;20.89;50.60;100503.72;1023133;29;20509;-71
2021/03/01 01:39:37;;;;;;;15.43;13.23;;;;;;;20.88;50.58;100501.16;1022504;28;20023;-72
2021/03/01 01:40:10;;;;;;;15.52;13.60;;;;;;;20.88;50.48;100502.03;1026820;28;20027;-71
2021/03/01 01:40:41;;;;;;;14.85;12.88;;;;;;;20.87;50.49;100505.78;1027506;28;20033;-71
2021/03/01 01:41:11;;;;;;;17.85;14.50;;;;;;;20.88;50.53;100512.13;1025488;28;20273;-71
2021/03/01 01:41:42;;;;;;;15.18;13.00;;;;;;;20.87;50.46;100503.06;1025035;28;20156;-71
2021/03/01 01:42:12;;;;;;;16.70;13.80;;;;;;;20.86;50.51;100504.03;1027156;28;20031;-72
2021/03/01 01:42:44;;;;;;;18.40;14.40;;;;;;;20.86;50.68;100509.53;1025532;28;20026;-71
2021/03/01 01:43:14;;;;;;;18.10;14.30;;;;;;;20.87;50.62;100510.38;1024976;28;20171;-71
2021/03/01 01:43:45;;;;;;;17.15;13.25;;;;;;;20.87;50.43;100511.28;1027308;28;20633;-72
2021/03/01 01:44:16;;;;;;;17.45;14.25;;;;;;;20.86;50.50;100504.03;1026265;28;20034;-72
2021/03/01 01:44:47;;;;;;;16.20;13.05;;;;;;;20.86;50.65;100506.78;1027172;28;20262;-71
2021/03/01 01:45:21;;;;;;;16.10;13.20;;;;;;;20.88;50.44;100506.66;1023957;28;20027;-71
2021/03/01 01:45:51;;;;;;;16.55;13.00;;;;;;;20.87;50.62;100504.91;1026967;28;20564;-71
2021/03/01 01:46:22;;;;;;;18.63;13.60;;;;;;;20.87;50.51;100505.78;1026102;28;20772;-72
2021/03/01 01:46:53;;;;;;;16.88;13.45;;;;;;;20.87;50.60;100507.66;1025128;28;20046;-70
2021/03/01 01:47:24;;;;;;;18.50;13.77;;;;;;;20.86;50.55;100505.94;1027396;28;20489;-71
2021/03/01 01:47:54;;;;;;;17.52;13.90;;;;;;;20.86;50.50;100504.03;1026260;28;20105;-71
2021/03/01 01:48:25;;;;;;;16.98;13.88;;;;;;;20.85;50.51;100502.34;1026546;28;20813;-71
2021/03/01 01:48:55;;;;;;;16.13;14.25;;;;;;;20.84;50.47;100505.22;1027287;28;20772;-72
2021/03/01 01:49:26;;;;;;;16.48;12.85;;;;;;;20.84;50.57;100506.06;1027255;28;20042;-71
2021/03/01 01:49:56;;;;;;;14.90;13.07;;;;;;;20.84;50.75;100500.59;1024065;28;20506;-71
2021/03/01 01:50:29;;;;;;;19.23;14.07;;;;;;;20.84;50.71;100507.94;1026765;28;20034;-71
2021/03/01 01:51:00;;;;;;;15.18;13.35;;;;;;;20.84;50.63;100500.59;1024482;28;20049;-71
2021/03/01 01:51:30;;;;;;;18.58;13.85;;;;;;;20.85;50.49;100496.84;1022116;28;20263;-71
2021/03/01 01:52:01;;;;;;;15.43;13.05;;;;;;;20.84;50.64;100499.72;1021112;28;20676;-71
2021/03/01 01:52:32;;;;;;;15.48;13.00;;;;;;;20.83;50.68;100498.88;1022187;28;20037;-71
2021/03/01 01:53:03;;;;;;;16.10;13.35;;;;;;;20.82;50.56;100499.00;1023553;29;20110;-71
2021/03/01 01:53:33;;;;;;;17.52;13.52;;;;;;;20.82;50.64;100496.28;1022433;28;20565;-71
2021/03/01 01:54:04;;;;;;;17.05;13.38;;;;;;;20.81;50.49;100495.41;1026655;28;20038;-71
2021/03/01 01:54:36;;;;;;;15.52;13.25;;;;;;;20.83;50.59;100500.75;1027315;28;20038;-71
2021/03/01 01:55:08;;;;;;;18.33;13.73;;;;;;;20.80;50.80;100499.19;1027225;28;20034;-71
2021/03/01 01:55:39;;;;;;;18.60;14.85;;;;;;;20.80;50.70;100493.72;1026648;28;20266;-71
2021/03/01 01:56:09;;;;;;;18.92;13.75;;;;;;;20.82;50.63;100494.38;1027524;28;20386;-72
2021/03/01 01:56:40;;;;;;;16.65;14.07;;;;;;;20.80;50.52;100493.72;1026879;28;20023;-71
2021/03/01 01:57:12;;;;;;;17.20;13.85;;;;;;;20.79;50.75;100491.97;1027042;28;20023;-70
2021/03/01 01:57:43;;;;;;;16.77;14.02;;;;;;;20.80;50.59;100493.72;1027283;28;20292;-71
2021/03/01 01:58:14;;;;;;;15.57;13.02;;;;;;;20.79;50.71;100491.97;1027258;28;20337;-71
2021/03/01 01:58:45;;;;;;;15.75;13.02;;;;;;;20.79;50.77;100497.44;1027224;28;20266;-71
2021/03/01 01:59:16;;;;;;;16.60;13.05;;;;;;;20.79;50.71;100491.97;1026723;28;20462;-71
2021/03/01 01:59:47;;;;;;;14.55;12.93;;;;;;;20.79;50.82;100497.44;1026953;28;20037;-71
2021/03/01 02:00:54;;;;;;;17.42;12.70;;;;;;;20.77;50.57;100494.00;1028457;28;20042;-71
2021/03/01 02:01:25;;;;;;;16.70;12.93;;;;;;;20.77;50.73;100494.88;1027329;28;20362;-71
2021/03/01 02:01:57;;;;;;;18.15;13.68;;;;;;;20.76;50.61;100497.75;1026848;28;20270;-72
2021/03/01 02:02:28;;;;;;;16.10;13.70;;;;;;;20.75;50.82;100502.38;1026278;28;20070;-71
2021/03/01 02:03:07;;;;;;;16.45;13.00;;;;;;;20.74;50.65;100499.78;1027025;28;20951;-71
2021/03/01 02:03:51;;;;;;;14.45;12.38;;;;;;;20.74;50.70;100497.03;1026244;28;20270;-71
2021/03/01 02:04:26;;;;;;;15.52;12.90;;;;;;;20.73;50.70;100487.09;1026038;28;20769;-71
2021/03/01 02:05:03;;;;;;;16.33;12.90;;;;;;;20.72;50.67;100496.31;1026933;28;20273;-71
2021/03/01 02:05:36;;;;;;;16.52;12.68;;;;;;;20.75;50.95;100496.03;1027354;28;20264;-71
2021/03/01 02:06:18;;;;;;;14.38;12.50;;;;;;;20.72;50.75;100490.84;1026212;28;20301;-71
2021/03/01 02:07:26;;;;;;;23.58;13.63;;;;;;;20.70;51.00;100487.38;1023867;28;20325;-71
2021/03/01 02:08:05;;;;;;;19.85;13.20;;;;;;;20.70;50.83;100495.59;1024749;28;20306;-72
2021/03/01 02:08:51;;;;;;;17.42;13.32;;;;;;;20.69;50.79;100492.00;1023757;28;20333;-71
2021/03/01 02:09:45;;;;;;;16.25;13.63;;;;;;;20.68;50.86;100497.66;1022509;28;20386;-71
2021/03/01 02:10:18;;;;;;;18.23;13.88;;;;;;;20.69;50.88;100489.28;1022520;29;20259;-71
2021/03/01 02:10:53;;;;;;;14.65;12.23;;;;;;;20.69;50.82;100491.16;1022375;28;20796;-71
2021/03/01 02:11:39;;;;;;;15.93;13.05;;;;;;;20.68;50.89;100489.44;1023077;28;20275;-71
2021/03/01 02:12:14;;;;;;;13.75;12.07;;;;;;;20.67;50.92;100490.44;1021595;28;20267;-71
2021/03/01 02:12:48;;;;;;;16.50;13.63;;;;;;;20.66;50.96;100485.97;1022794;28;20271;-71
2021/03/01 02:13:37;;;;;;;16.20;12.95;;;;;;;20.65;51.00;100492.47;1026301;28;20318;-71
2021/03/01 02:14:17;;;;;;;16.42;12.93;;;;;;;20.65;50.96;100492.47;1027443;28;20365;-71
2021/03/01 02:14:47;;;;;;;15.93;14.20;;;;;;;20.66;50.93;100491.47;1025536;28;20267;-71
2021/03/01 02:15:38;;;;;;;19.35;13.63;;;;;;;20.66;50.94;100488.72;1027550;28;20274;-71
2021/03/01 02:16:16;;;;;;;15.20;13.25;;;;;;;20.64;50.93;100488.00;1026979;28;20034;-72
2021/03/01 02:16:47;;;;;;;13.88;11.80;;;;;;;20.64;50.92;100491.59;1023851;28;20788;-71
2021/03/01 02:17:17;;;;;;;17.10;13.68;;;;;;;20.65;50.97;100487.88;1027311;28;20286;-71
2021/03/01 02:17:48;;;;;;;16.05;13.25;;;;;;;20.66;50.93;100488.72;1026788;28;20120;-72
2021/03/01 02:18:19;;;;;;;17.08;12.48;;;;;;;20.66;50.94;100491.47;1022799;28;20122;-71
2021/03/01 02:18:49;;;;;;;16.27;13.27;;;;;;;20.64;50.97;100493.47;1018871;29;20032;-71
2021/03/01 02:19:22;;;;;;;19.27;14.27;;;;;;;20.65;51.01;100495.19;1018521;29;20019;-71
2021/03/01 02:19:52;;;;;;;15.23;13.63;;;;;;;20.64;50.94;100488.84;1018559;29;20815;-72
2021/03/01 02:20:23;;;;;;;14.52;13.00;;;;;;;20.66;51.02;100496.94;1023298;28;20611;-71
2021/03/01 02:20:55;;;;;;;13.23;11.88;;;;;;;20.65;51.01;100495.19;1027582;28;20031;-71
2021/03/01 02:21:25;;;;;;;15.68;11.93;;;;;;;20.64;51.13;100499.81;1026183;28;20485;-71
2021/03/01 02:21:56;;;;;;;15.38;12.27;;;;;;;20.65;50.97;100495.19;1027078;28;21130;-71
2021/03/01 02:22:27;;;;;;;13.75;12.25;;;;;;;20.64;51.02;100494.34;1027077;28;20026;-71
2021/03/01 02:22:57;;;;;;;16.23;13.45;;;;;;;20.63;51.09;100492.63;1026326;28;20089;-71
2021/03/01 02:23:28;;;;;;;16.60;13.63;;;;;;;20.62;51.01;100498.25;1027340;28;20298;-71
2021/03/01 02:23:59;;;;;;;15.80;12.52;;;;;;;20.62;50.96;100490.88;1024883;28;20476;-71
2021/03/01 02:24:37;;;;;;;14.75;12.93;;;;;;;20.62;51.15;100492.75;1026339;28;20027;-71
2021/03/01 02:25:11;;;;;;;17.15;12.75;;;;;;;20.62;51.02;100490.88;1026832;28;20026;-71
2021/03/01 02:26:02;;;;;;;16.50;13.35;;;;;;;20.60;51.09;100492.03;1027311;28;20286;-71